Time;durP1;ratioP1;P1;durP2;ratioP2;P2;SDS_P1;SDS_P2;PMS_P1;PMS_P2;Temp;Humidity;BMP_temperature;BMP_pressure;BME280_temperature;BME280_humidity;BME280_pressure;Samples;Min_cycle;Max_cycle;Signal;HPM_P1;HPM_P2
2023/01/19 00:01:24;;;;;;;8.10;4.20;;;-0.60;99.90;;;;;;5034490;28;20564;-80
2023/01/19 00:03:51;;;;;;;5.40;3.42;;;-0.60;99.90;;;;;;5051269;28;20183;-80
2023/01/19 00:06:17;;;;;;;5.78;3.90;;;-0.60;99.90;;;;;;5052322;28;20172;-80
2023/01/19 00:08:47;;;;;;;7.78;4.35;;;-0.70;99.90;;;;;;5050543;28;20187;-77
2023/01/19 00:11:13;;;;;;;6.43;4.00;;;-0.60;99.90;;;;;;5051283;28;20691;-78
2023/01/19 00:13:39;;;;;;;10.03;3.90;;;-0.70;99.90;;;;;;5050038;28;20218;-77
2023/01/19 00:16:06;;;;;;;12.93;3.95;;;-0.70;99.90;;;;;;5050922;28;20525;-79
2023/01/19 00:18:32;;;;;;;9.38;3.90;;;-0.60;99.90;;;;;;5051087;28;20204;-80
2023/01/19 00:20:57;;;;;;;8.00;4.87;;;-0.70;99.90;;;;;;5052837;28;20238;-80
2023/01/19 00:23:23;;;;;;;7.27;4.40;;;-0.70;99.90;;;;;;5052462;28;20422;-80
2023/01/19 00:25:50;;;;;;;4.23;3.83;;;-0.70;99.90;;;;;;5052462;28;20203;-80
2023/01/19 00:28:17;;;;;;;7.05;4.00;;;-0.70;99.90;;;;;;5052712;28;20807;-80
2023/01/19 00:30:43;;;;;;;7.97;4.47;;;-0.70;99.90;;;;;;5053598;28;20707;-80
2023/01/19 00:33:13;;;;;;;6.25;4.22;;;-0.80;99.90;;;;;;5050709;28;20184;-76
2023/01/19 00:35:39;;;;;;;7.70;4.22;;;-0.80;99.90;;;;;;5050670;28;20185;-77
2023/01/19 00:38:04;;;;;;;10.00;4.57;;;-0.80;99.90;;;;;;5032483;28;20258;-77
2023/01/19 00:40:30;;;;;;;6.30;4.13;;;-0.80;99.90;;;;;;5032759;28;20449;-80
2023/01/19 00:42:55;;;;;;;7.37;4.40;;;-0.80;99.90;;;;;;5049602;28;20290;-79
2023/01/19 00:45:23;;;;;;;11.63;5.03;;;-0.80;99.90;;;;;;5033673;28;20176;-80
2023/01/19 00:47:53;;;;;;;5.90;4.43;;;-0.90;99.90;;;;;;5050447;28;20584;-80
2023/01/19 00:50:19;;;;;;;16.02;5.10;;;-0.80;99.90;;;;;;5050975;28;20210;-77
2023/01/19 00:52:45;;;;;;;6.50;4.78;;;-0.90;99.90;;;;;;5050463;28;20179;-79
2023/01/19 00:55:12;;;;;;;7.90;5.10;;;-0.90;99.90;;;;;;5033256;28;20213;-79
2023/01/19 00:57:39;;;;;;;4.72;3.92;;;-0.90;99.90;;;;;;5049139;28;20207;-79
2023/01/19 01:00:08;;;;;;;6.10;4.57;;;-0.90;99.90;;;;;;5049114;28;20664;-79
2023/01/19 01:02:33;;;;;;;5.63;4.63;;;-0.90;99.90;;;;;;5032025;28;20646;-79
2023/01/19 01:05:01;;;;;;;6.77;4.33;;;-0.90;99.90;;;;;;5031525;28;20303;-80
2023/01/19 01:07:28;;;;;;;5.57;4.70;;;-0.90;99.90;;;;;;5048193;28;20185;-79
2023/01/19 01:09:55;;;;;;;5.88;5.10;;;-0.90;99.90;;;;;;5031772;28;20195;-80
2023/01/19 01:12:22;;;;;;;8.68;4.68;;;-0.90;99.90;;;;;;5031599;28;20238;-77
2023/01/19 01:14:47;;;;;;;9.15;4.97;;;-0.90;99.90;;;;;;5049238;28;20609;-77
2023/01/19 01:17:13;;;;;;;6.50;4.47;;;-0.90;99.90;;;;;;5049296;28;20337;-77
2023/01/19 01:19:42;;;;;;;7.30;4.47;;;-0.90;99.90;;;;;;5051960;28;20421;-79
2023/01/19 01:22:09;;;;;;;14.82;4.65;;;-1.00;99.90;;;;;;5050745;28;20545;-78
2023/01/19 01:24:35;;;;;;;6.57;4.80;;;-1.00;99.90;;;;;;5049458;28;20285;-78
2023/01/19 01:27:00;;;;;;;5.47;4.83;;;-1.00;99.90;;;;;;5031389;28;20291;-78
2023/01/19 01:29:26;;;;;;;4.40;3.83;;;-1.00;99.90;;;;;;5050123;28;20426;-78
2023/01/19 01:31:51;;;;;;;10.00;4.83;;;-1.00;99.90;;;;;;5049333;28;20399;-78
2023/01/19 01:34:17;;;;;;;6.53;4.50;;;-1.00;99.90;;;;;;5048986;28;20227;-77
2023/01/19 01:36:43;;;;;;;5.90;4.63;;;-1.00;99.90;;;;;;5048660;28;20211;-78
2023/01/19 01:39:10;;;;;;;6.70;4.40;;;-1.00;99.90;;;;;;5047828;28;20227;-79
2023/01/19 01:41:35;;;;;;;7.60;5.10;;;-1.00;99.90;;;;;;5047262;28;20700;-79
2023/01/19 01:44:05;;;;;;;5.70;4.37;;;-1.10;99.90;;;;;;5048395;28;20183;-79
2023/01/19 01:46:30;;;;;;;8.38;5.75;;;-1.10;99.90;;;;;;5049447;28;20179;-78
2023/01/19 01:48:56;;;;;;;10.80;4.60;;;-1.20;99.90;;;;;;5031844;28;20787;-78
2023/01/19 01:51:29;;;;;;;10.80;4.77;;;-1.20;99.90;;;;;;5048884;28;20473;-77
2023/01/19 01:54:03;;;;;;;9.45;5.15;;;-1.20;99.90;;;;;;5047843;28;20190;-79
2023/01/19 01:56:36;;;;;;;7.13;4.93;;;-1.20;99.90;;;;;;5050063;28;20189;-78
2023/01/19 01:59:06;;;;;;;5.80;4.80;;;-1.10;99.90;;;;;;5048489;28;20277;-78
2023/01/19 02:04:16;;;;;;;7.50;4.97;;;-1.20;99.90;;;;;;5048692;28;20195;-79
2023/01/19 02:14:56;;;;;;;7.00;4.40;;;-1.20;99.90;;;;;;5047871;28;20257;-77
2023/01/19 02:17:22;;;;;;;7.17;4.43;;;-1.20;99.90;;;;;;5046947;28;20216;-78
2023/01/19 02:19:48;;;;;;;7.07;4.30;;;-1.20;99.90;;;;;;5049468;28;20716;-78
2023/01/19 02:22:26;;;;;;;10.73;5.10;;;-1.20;99.90;;;;;;5031081;28;20438;-78
2023/01/19 02:24:52;;;;;;;5.40;4.10;;;-1.20;99.90;;;;;;5049317;28;20218;-77
2023/01/19 02:27:19;;;;;;;9.02;4.40;;;-1.20;99.90;;;;;;5048821;28;20665;-78
2023/01/19 02:29:44;;;;;;;7.25;4.40;;;-1.20;99.90;;;;;;5047689;28;20184;-78
2023/01/19 02:32:10;;;;;;;8.43;4.60;;;-1.20;99.90;;;;;;5031253;28;20223;-78
2023/01/19 02:34:36;;;;;;;6.33;4.33;;;-1.20;99.90;;;;;;5047985;28;20241;-78
2023/01/19 02:37:13;;;;;;;11.33;4.87;;;-1.10;99.90;;;;;;5049122;28;20676;-78
2023/01/19 02:39:44;;;;;;;11.48;4.70;;;-1.20;99.90;;;;;;5048063;28;20194;-77
2023/01/19 02:42:18;;;;;;;5.35;4.10;;;-1.20;99.90;;;;;;5048649;28;20753;-78
2023/01/19 02:44:47;;;;;;;7.28;4.75;;;-1.20;99.90;;;;;;5048997;28;20208;-77
2023/01/19 02:47:13;;;;;;;4.93;4.13;;;-1.20;99.90;;;;;;5047469;28;20192;-78
2023/01/19 02:49:39;;;;;;;8.35;4.35;;;-1.20;99.90;;;;;;5049255;28;20941;-78
2023/01/19 02:52:05;;;;;;;8.77;4.10;;;-1.20;99.90;;;;;;5047761;28;20219;-78
2023/01/19 02:55:06;;;;;;;6.72;4.80;;;-1.20;99.90;;;;;;5049334;28;20298;-78
2023/01/19 02:57:42;;;;;;;8.18;4.75;;;-1.20;99.90;;;;;;5044472;28;20207;-78
2023/01/19 03:00:11;;;;;;;11.70;5.68;;;-1.20;99.90;;;;;;5048649;28;20732;-78
2023/01/19 03:03:12;;;;;;;7.82;4.50;;;-1.30;99.90;;;;;;5048740;28;20180;-78
2023/01/19 03:06:01;;;;;;;6.93;4.93;;;-1.20;99.90;;;;;;5049090;28;20182;-79
2023/01/19 03:08:54;;;;;;;9.27;5.75;;;-1.20;99.90;;;;;;5047475;28;20180;-79
2023/01/19 03:11:19;;;;;;;5.25;4.72;;;-1.20;99.90;;;;;;5047175;28;20203;-80
2023/01/19 03:13:52;;;;;;;9.33;5.50;;;-1.20;99.90;;;;;;5047482;28;20250;-78
2023/01/19 03:16:21;;;;;;;8.88;5.07;;;-1.30;99.90;;;;;;5047723;28;20221;-79
2023/01/19 03:18:52;;;;;;;8.75;5.32;;;-1.30;99.90;;;;;;5047201;28;20207;-76
2023/01/19 03:21:22;;;;;;;8.63;4.72;;;-1.30;99.90;;;;;;5048603;28;20241;-77
2023/01/19 03:23:49;;;;;;;8.93;4.47;;;-1.30;99.90;;;;;;5050859;28;20203;-80
2023/01/19 03:26:20;;;;;;;7.60;4.35;;;-1.40;99.90;;;;;;5034680;28;20222;-81
2023/01/19 03:28:47;;;;;;;10.60;5.40;;;-1.40;99.90;;;;;;5052231;28;20239;-82
2023/01/19 03:31:26;;;;;;;7.78;4.60;;;-1.40;99.90;;;;;;5051022;28;20235;-83
2023/01/19 03:33:57;;;;;;;6.05;4.30;;;-1.40;99.90;;;;;;5052370;28;20684;-77
2023/01/19 03:36:46;;;;;;;8.70;5.22;;;-1.50;99.90;;;;;;5050772;28;20200;-78
2023/01/19 03:39:16;;;;;;;6.57;4.47;;;-1.50;99.90;;;;;;5052552;28;20188;-78
2023/01/19 03:41:45;;;;;;;7.15;4.65;;;-1.40;99.90;;;;;;5052301;28;20204;-77
2023/01/19 03:44:11;;;;;;;8.82;5.40;;;-1.30;99.90;;;;;;5051205;28;20207;-77
2023/01/19 03:46:37;;;;;;;4.83;3.83;;;-1.30;99.90;;;;;;5051171;28;20211;-77
2023/01/19 03:49:03;;;;;;;6.68;5.07;;;-1.20;99.90;;;;;;5052019;28;20421;-78
2023/01/19 03:51:29;;;;;;;7.70;3.70;;;-1.10;99.90;;;;;;5050289;28;20204;-77
2023/01/19 03:53:55;;;;;;;6.37;3.87;;;-1.00;99.90;;;;;;5052376;28;20501;-80
2023/01/19 03:56:23;;;;;;;7.20;4.57;;;-1.00;99.90;;;;;;5050712;28;20920;-78
2023/01/19 03:58:50;;;;;;;9.48;4.90;;;-0.90;99.90;;;;;;5051906;28;20231;-81
2023/01/19 04:01:16;;;;;;;9.57;4.75;;;-0.90;99.90;;;;;;5051680;28;20208;-81
2023/01/19 04:03:42;;;;;;;6.30;4.25;;;-0.90;99.90;;;;;;5034082;28;20184;-82
2023/01/19 04:06:09;;;;;;;5.23;4.20;;;-0.90;99.90;;;;;;5034108;28;20184;-77
2023/01/19 04:08:35;;;;;;;5.20;3.85;;;-0.90;99.90;;;;;;5051703;28;20424;-77
2023/01/19 04:11:01;;;;;;;7.35;4.88;;;-0.90;99.90;;;;;;5049957;28;20211;-77
2023/01/19 04:13:28;;;;;;;5.57;3.63;;;-1.00;99.90;;;;;;5051650;28;20230;-77
2023/01/19 04:15:58;;;;;;;9.40;4.80;;;-1.00;99.90;;;;;;5051587;28;20180;-78
2023/01/19 04:18:23;;;;;;;5.70;4.82;;;-1.00;99.90;;;;;;5051067;28;20215;-77
2023/01/19 04:20:49;;;;;;;4.17;3.30;;;-1.00;99.90;;;;;;5033186;28;20215;-78
2023/01/19 04:23:14;;;;;;;7.40;3.70;;;-1.10;99.90;;;;;;5051269;28;20743;-77
2023/01/19 04:25:40;;;;;;;6.00;3.43;;;-1.10;99.90;;;;;;5049589;28;20225;-80
2023/01/19 04:28:06;;;;;;;7.00;3.83;;;-1.10;99.90;;;;;;5049502;28;20672;-80
2023/01/19 04:30:31;;;;;;;4.43;3.43;;;-0.80;99.90;;;;;;5050084;28;20214;-79
2023/01/19 04:32:58;;;;;;;5.53;3.30;;;-1.10;99.90;;;;;;5049583;28;20218;-80
2023/01/19 04:35:24;;;;;;;3.33;2.95;;;-1.10;99.90;;;;;;5032346;28;20195;-78
2023/01/19 04:37:50;;;;;;;3.70;3.17;;;-1.10;99.90;;;;;;5051102;28;20703;-78
2023/01/19 04:40:15;;;;;;;6.93;3.60;;;-1.10;99.90;;;;;;5033051;28;20191;-79
2023/01/19 04:42:44;;;;;;;4.13;3.50;;;-1.20;99.90;;;;;;5032757;28;20237;-79
2023/01/19 04:45:11;;;;;;;5.20;3.55;;;-1.10;99.90;;;;;;5033078;28;20210;-80
2023/01/19 04:47:37;;;;;;;4.10;2.92;;;-1.10;99.90;;;;;;5049304;28;20202;-79
2023/01/19 04:50:04;;;;;;;4.50;3.10;;;-1.20;99.90;;;;;;5049511;28;20195;-80
2023/01/19 04:52:34;;;;;;;4.10;3.42;;;-1.10;99.90;;;;;;5049570;28;20686;-79
2023/01/19 04:55:01;;;;;;;5.97;3.28;;;-1.10;99.90;;;;;;5050857;28;20179;-80
2023/01/19 04:57:29;;;;;;;3.97;3.38;;;-1.10;99.90;;;;;;5049255;28;20554;-79
2023/01/19 04:59:55;;;;;;;3.67;2.60;;;-1.10;99.90;;;;;;5049523;28;20203;-79
2023/01/19 05:02:21;;;;;;;4.65;3.50;;;-1.10;99.90;;;;;;5032866;28;20208;-78
2023/01/19 05:04:47;;;;;;;3.60;2.85;;;-1.20;99.90;;;;;;5050572;28;20176;-76
2023/01/19 05:07:13;;;;;;;5.03;3.43;;;-1.10;99.90;;;;;;5049077;28;20191;-76
2023/01/19 05:09:38;;;;;;;3.27;2.97;;;-1.10;99.90;;;;;;5050620;28;20652;-76
2023/01/19 05:12:04;;;;;;;3.70;3.20;;;-1.10;99.90;;;;;;5048932;28;20208;-76
2023/01/19 05:14:30;;;;;;;4.60;3.00;;;-1.10;99.90;;;;;;5048869;28;20697;-76
2023/01/19 05:16:55;;;;;;;5.70;5.17;;;-1.10;99.90;;;;;;5050177;28;20763;-76
2023/01/19 05:19:21;;;;;;;4.30;2.90;;;-1.10;99.90;;;;;;5049971;28;20172;-77
2023/01/19 05:21:47;;;;;;;5.10;3.23;;;-1.00;99.90;;;;;;5049447;28;20210;-75
2023/01/19 05:24:12;;;;;;;4.83;2.97;;;-1.00;99.90;;;;;;5046978;28;20950;-76
2023/01/19 05:26:38;;;;;;;4.70;3.20;;;-1.10;99.90;;;;;;5048355;28;20184;-75
2023/01/19 05:29:04;;;;;;;4.53;3.63;;;-1.10;99.90;;;;;;5048189;28;20789;-76
2023/01/19 05:31:29;;;;;;;3.93;3.13;;;-1.10;99.90;;;;;;5046703;28;20212;-76
2023/01/19 05:33:55;;;;;;;4.40;2.90;;;-1.10;99.90;;;;;;5048449;28;20188;-76
2023/01/19 05:36:20;;;;;;;3.37;2.50;;;-1.10;99.90;;;;;;5047887;28;20195;-76
2023/01/19 05:38:46;;;;;;;4.00;2.97;;;-1.10;99.90;;;;;;5046639;28;20212;-76
2023/01/19 05:41:11;;;;;;;8.33;3.00;;;-1.00;99.90;;;;;;5046472;28;20202;-76
2023/01/19 05:43:37;;;;;;;4.70;2.80;;;-1.00;99.90;;;;;;5048281;28;20661;-76
2023/01/19 05:46:04;;;;;;;6.40;3.50;;;-1.10;99.90;;;;;;5046543;28;20207;-76
2023/01/19 05:48:30;;;;;;;3.05;2.50;;;-1.00;99.90;;;;;;5047821;28;20695;-75
2023/01/19 05:50:57;;;;;;;6.55;5.90;;;-1.00;99.90;;;;;;5047609;28;20218;-76
2023/01/19 05:53:23;;;;;;;3.63;3.03;;;-1.00;99.90;;;;;;5046003;28;20203;-76
2023/01/19 05:55:48;;;;;;;4.03;2.60;;;-0.90;99.90;;;;;;5047858;28;20183;-76
2023/01/19 05:58:14;;;;;;;3.03;2.70;;;-0.90;99.90;;;;;;5047869;28;20723;-76
2023/01/19 06:00:39;;;;;;;4.30;2.60;;;-0.90;99.90;;;;;;5046044;28;20211;-76
2023/01/19 06:03:05;;;;;;;2.83;2.50;;;-0.90;99.90;;;;;;5046450;28;20196;-76
2023/01/19 06:05:31;;;;;;;4.87;2.50;;;-0.80;99.90;;;;;;5046458;28;20183;-75
2023/01/19 06:07:56;;;;;;;3.70;3.00;;;-0.80;99.90;;;;;;5046271;28;20191;-75
2023/01/19 06:10:22;;;;;;;1.83;1.73;;;-0.80;99.90;;;;;;5046047;28;20187;-76
2023/01/19 06:12:48;;;;;;;2.50;2.30;;;-0.90;99.90;;;;;;5047630;28;20255;-76
2023/01/19 06:15:14;;;;;;;2.90;2.70;;;-0.90;99.90;;;;;;5047480;28;20205;-75
2023/01/19 06:17:40;;;;;;;7.50;2.13;;;-0.90;99.90;;;;;;5046021;28;20689;-76
2023/01/19 06:20:08;;;;;;;5.53;3.90;;;-1.00;99.90;;;;;;5046051;28;20178;-75
2023/01/19 06:22:33;;;;;;;4.00;3.15;;;-1.00;99.90;;;;;;5045987;28;20188;-76
2023/01/19 06:24:59;;;;;;;6.60;5.47;;;-1.20;99.90;;;;;;5046019;28;20212;-75
2023/01/19 06:27:24;;;;;;;3.63;3.43;;;-1.20;99.90;;;;;;5046190;28;20191;-76
2023/01/19 06:29:50;;;;;;;5.00;2.93;;;-1.10;99.90;;;;;;5046338;28;20179;-76
2023/01/19 06:32:16;;;;;;;5.03;2.47;;;-1.20;99.90;;;;;;5047795;28;20607;-76
2023/01/19 06:34:42;;;;;;;1.97;1.77;;;-1.20;99.90;;;;;;5047607;28;20177;-75
2023/01/19 06:37:12;;;;;;;3.63;2.65;;;-1.20;99.90;;;;;;5047858;28;20422;-76
2023/01/19 06:39:39;;;;;;;2.50;1.92;;;-1.20;99.90;;;;;;5045299;28;20266;-76
2023/01/19 06:42:06;;;;;;;3.15;2.20;;;-1.20;99.90;;;;;;5047668;28;20218;-76
2023/01/19 06:44:32;;;;;;;6.57;2.67;;;-1.20;99.90;;;;;;5046336;28;20183;-76
2023/01/19 06:46:57;;;;;;;5.13;2.00;;;-1.20;99.90;;;;;;5047592;28;20675;-76
2023/01/19 06:49:23;;;;;;;2.30;2.10;;;-1.30;99.90;;;;;;5045707;28;20180;-76
2023/01/19 06:51:49;;;;;;;2.07;1.70;;;-1.30;99.90;;;;;;5045897;28;20265;-76
2023/01/19 06:54:14;;;;;;;2.60;1.90;;;-1.30;99.90;;;;;;5047604;28;20176;-76
2023/01/19 06:56:40;;;;;;;2.90;2.23;;;-1.30;99.90;;;;;;5047891;28;20419;-76
2023/01/19 06:59:06;;;;;;;6.83;2.13;;;-1.30;99.90;;;;;;5048408;28;20231;-76
2023/01/19 07:01:31;;;;;;;2.43;2.23;;;-1.40;99.90;;;;;;5050128;28;20277;-76
2023/01/19 07:03:57;;;;;;;2.37;1.87;;;-1.30;99.90;;;;;;5051527;28;20191;-76
2023/01/19 07:06:23;;;;;;;269.07;108.83;;;-1.30;99.90;;;;;;5051629;28;20212;-76
2023/01/19 07:08:48;;;;;;;3.50;3.13;;;-1.30;99.90;;;;;;5051088;28;20599;-76
2023/01/19 07:11:14;;;;;;;4.87;2.03;;;-1.40;99.90;;;;;;5051488;28;20239;-76
2023/01/19 07:13:40;;;;;;;2.60;2.40;;;-1.40;99.90;;;;;;5051328;28;20683;-76
2023/01/19 07:16:15;;;;;;;7.13;2.60;;;-1.40;99.90;;;;;;5051400;28;20188;-76
2023/01/19 07:18:40;;;;;;;2.35;1.80;;;-1.40;99.90;;;;;;5051122;28;20984;-76
2023/01/19 07:21:07;;;;;;;5.50;2.93;;;-1.40;99.90;;;;;;5051135;28;20257;-76
2023/01/19 07:23:33;;;;;;;3.22;2.35;;;-1.40;99.90;;;;;;5051044;28;20191;-76
2023/01/19 07:26:00;;;;;;;4.83;2.53;;;-1.40;99.90;;;;;;5051051;28;20172;-75
2023/01/19 07:28:26;;;;;;;2.65;2.10;;;-1.40;99.90;;;;;;5050958;28;20418;-76
2023/01/19 07:30:53;;;;;;;3.65;2.25;;;-1.40;99.90;;;;;;5050775;28;20256;-75
2023/01/19 07:33:23;;;;;;;4.32;2.80;;;-1.50;99.90;;;;;;5051216;28;20191;-76
2023/01/19 07:35:49;;;;;;;2.55;2.35;;;-1.40;99.90;;;;;;5049587;28;20246;-76
2023/01/19 07:38:16;;;;;;;3.25;2.20;;;-1.40;99.90;;;;;;5050705;28;20680;-76
2023/01/19 07:40:42;;;;;;;2.33;2.20;;;-1.50;99.90;;;;;;5049346;28;20215;-76
2023/01/19 07:43:08;;;;;;;6.50;1.80;;;-1.50;99.90;;;;;;5050614;28;20176;-76
2023/01/19 07:45:34;;;;;;;2.40;2.17;;;-1.50;99.90;;;;;;5049354;28;20914;-75
2023/01/19 07:48:00;;;;;;;2.70;2.40;;;-1.50;99.90;;;;;;5050417;28;20668;-75
2023/01/19 07:50:28;;;;;;;4.70;2.30;;;-1.60;99.90;;;;;;5050516;28;20223;-76
2023/01/19 07:52:54;;;;;;;4.40;2.65;;;-1.60;99.90;;;;;;5049451;28;20577;-76
2023/01/19 07:55:20;;;;;;;6.32;2.20;;;-1.50;99.90;;;;;;5049360;28;20195;-75
2023/01/19 07:57:50;;;;;;;3.25;1.90;;;-1.50;99.90;;;;;;5050381;28;20207;-75
2023/01/19 08:00:20;;;;;;;1.95;1.80;;;-1.30;99.90;;;;;;5048375;28;20200;-75
2023/01/19 08:02:48;;;;;;;3.33;2.15;;;-1.30;99.90;;;;;;5048410;28;20732;-75
2023/01/19 08:05:15;;;;;;;6.97;1.88;;;-1.10;99.90;;;;;;5049728;28;20184;-75
2023/01/19 08:07:40;;;;;;;2.28;2.08;;;-1.00;99.90;;;;;;5048144;28;20566;-75
2023/01/19 08:10:07;;;;;;;2.83;2.43;;;-1.00;99.90;;;;;;5048517;28;20188;-75
2023/01/19 08:12:33;;;;;;;3.33;2.03;;;-0.90;99.90;;;;;;5048049;28;20219;-75
2023/01/19 08:14:59;;;;;;;4.30;2.58;;;-0.50;99.90;;;;;;5048564;28;20732;-75
2023/01/19 08:17:24;;;;;;;33.13;11.50;;;-0.30;99.90;;;;;;5049516;28;20333;-75
2023/01/19 08:19:50;;;;;;;37.17;13.90;;;0.00;99.90;;;;;;5049781;28;20229;-75
2023/01/19 08:22:15;;;;;;;28.53;10.37;;;0.40;99.90;;;;;;5048209;28;20200;-75
2023/01/19 08:24:41;;;;;;;15.53;6.30;;;0.70;99.70;;;;;;5049637;28;20225;-75
2023/01/19 08:27:08;;;;;;;10.03;4.07;;;1.10;98.20;;;;;;5049723;28;20192;-75
2023/01/19 08:29:34;;;;;;;60.30;17.83;;;1.80;96.70;;;;;;5050188;28;20264;-75
2023/01/19 08:32:01;;;;;;;4.60;1.97;;;2.70;95.40;;;;;;5048770;28;20319;-76
2023/01/19 08:34:29;;;;;;;2.20;1.50;;;3.60;91.10;;;;;;5049859;28;20177;-76
2023/01/19 08:36:55;;;;;;;8.77;2.33;;;3.80;88.90;;;;;;5049651;28;20653;-76
2023/01/19 08:39:22;;;;;;;3.60;1.88;;;4.30;90.50;;;;;;5049818;28;20181;-76
2023/01/19 08:41:49;;;;;;;7.50;2.30;;;3.50;84.00;;;;;;5048264;28;20577;-75
2023/01/19 08:44:15;;;;;;;3.05;1.88;;;3.10;85.60;;;;;;5048401;28;20190;-76
2023/01/19 08:46:40;;;;;;;3.93;2.00;;;3.50;88.40;;;;;;5047938;28;20588;-75
2023/01/19 08:49:06;;;;;;;1.70;1.60;;;2.40;87.40;;;;;;5049328;28;20190;-75
2023/01/19 08:51:32;;;;;;;4.47;1.70;;;2.20;89.40;;;;;;5048921;28;20952;-75
2023/01/19 08:53:58;;;;;;;1.83;1.40;;;1.90;90.80;;;;;;5047625;28;20918;-75
2023/01/19 08:56:23;;;;;;;1.60;1.37;;;1.40;91.80;;;;;;5030963;28;20467;-76
2023/01/19 08:58:49;;;;;;;5.90;1.97;;;1.30;92.70;;;;;;5048586;28;20216;-75
2023/01/19 09:01:19;;;;;;;2.40;1.33;;;1.20;93.00;;;;;;5030631;28;20255;-75
2023/01/19 09:03:45;;;;;;;4.50;1.95;;;1.20;92.80;;;;;;5048970;28;20195;-75
2023/01/19 09:06:13;;;;;;;3.95;1.65;;;1.20;93.90;;;;;;5048640;28;20227;-75
2023/01/19 09:08:39;;;;;;;3.38;1.73;;;1.90;93.30;;;;;;5048539;28;20204;-75
2023/01/19 09:11:13;;;;;;;2.05;1.50;;;3.20;92.90;;;;;;5048405;28;20213;-76
2023/01/19 09:13:40;;;;;;;3.50;1.50;;;4.80;87.40;;;;;;5048822;28;20200;-76
2023/01/19 09:16:06;;;;;;;1.50;1.33;;;6.60;83.20;;;;;;5046710;28;20781;-75
2023/01/19 09:18:33;;;;;;;3.07;1.83;;;6.60;75.20;;;;;;5048007;28;20466;-77
2023/01/19 09:21:00;;;;;;;8.93;1.77;;;6.00;73.50;;;;;;5047834;28;20440;-76
2023/01/19 09:23:25;;;;;;;1.87;1.67;;;5.00;76.40;;;;;;5047007;28;20905;-76
2023/01/19 09:26:00;;;;;;;2.10;1.23;;;4.50;77.30;;;;;;5048489;28;20450;-76
2023/01/19 09:28:26;;;;;;;2.10;1.80;;;4.10;81.10;;;;;;5048473;28;20426;-76
2023/01/19 09:30:52;;;;;;;2.30;1.70;;;4.40;80.80;;;;;;5048208;28;20434;-76
2023/01/19 09:33:18;;;;;;;3.97;2.10;;;4.30;81.70;;;;;;5048398;28;20432;-76
2023/01/19 09:35:45;;;;;;;6.70;2.00;;;4.30;81.70;;;;;;5047230;28;20553;-76
2023/01/19 09:38:12;;;;;;;5.13;1.77;;;4.30;80.80;;;;;;5048597;28;20568;-76
2023/01/19 09:40:56;;;;;;;3.30;1.80;;;4.40;83.20;;;;;;5048560;28;20446;-76
2023/01/19 09:43:55;;;;;;;4.25;2.50;;;4.30;81.70;;;;;;5048815;28;20412;-76
2023/01/19 09:46:33;;;;;;;3.90;2.20;;;4.00;82.80;;;;;;5048743;28;20658;-76
2023/01/19 09:49:03;;;;;;;6.57;2.08;;;3.80;83.80;;;;;;5048651;28;20429;-76
2023/01/19 09:51:36;;;;;;;2.20;2.00;;;3.80;82.90;;;;;;5048458;28;20579;-75
2023/01/19 09:54:12;;;;;;;5.83;2.20;;;5.00;81.40;;;;;;5048047;28;20435;-76
2023/01/19 09:56:39;;;;;;;2.20;1.87;;;5.80;76.90;;;;;;5047615;28;20472;-76
2023/01/19 09:59:25;;;;;;;2.47;2.27;;;5.70;74.00;;;;;;5047362;28;20496;-76
2023/01/19 10:02:17;;;;;;;4.73;2.47;;;4.90;77.80;;;;;;5047452;28;20442;-77
2023/01/19 10:04:55;;;;;;;2.77;2.50;;;4.90;78.70;;;;;;5042909;28;20422;-76
2023/01/19 10:07:31;;;;;;;3.13;2.60;;;4.70;77.20;;;;;;5045992;28;20429;-76
2023/01/19 10:10:20;;;;;;;3.03;2.03;;;5.30;75.90;;;;;;5048075;28;20465;-76
2023/01/19 10:13:07;;;;;;;4.43;3.03;;;6.10;74.40;;;;;;5047811;28;20505;-77
2023/01/19 10:15:45;;;;;;;4.50;2.53;;;6.40;71.80;;;;;;5045946;28;20469;-76
2023/01/19 10:18:16;;;;;;;5.43;3.20;;;7.00;71.10;;;;;;5047684;28;20464;-75
2023/01/19 10:20:45;;;;;;;6.60;2.80;;;6.40;71.70;;;;;;5047457;28;20488;-76
2023/01/19 10:23:36;;;;;;;2.53;2.33;;;5.80;71.50;;;;;;5047167;28;20491;-76
2023/01/19 10:26:09;;;;;;;2.27;1.67;;;4.60;73.00;;;;;;5047449;28;20767;-76
2023/01/19 10:28:36;;;;;;;2.50;2.00;;;5.50;74.50;;;;;;5046072;28;20398;-76
2023/01/19 10:31:03;;;;;;;1.87;1.77;;;5.90;74.30;;;;;;5047404;28;20448;-76
2023/01/19 10:33:29;;;;;;;2.23;1.60;;;5.60;71.00;;;;;;5047474;28;20421;-76
2023/01/19 10:35:55;;;;;;;2.43;1.60;;;4.90;76.60;;;;;;5033310;28;20438;-76
2023/01/19 10:38:21;;;;;;;2.23;2.10;;;5.00;74.60;;;;;;5051173;28;20543;-76
2023/01/19 10:40:53;;;;;;;3.03;1.80;;;4.50;74.70;;;;;;5051672;28;20709;-76
2023/01/19 10:43:40;;;;;;;8.90;3.97;;;3.60;77.70;;;;;;5051216;28;20174;-76
2023/01/19 10:46:16;;;;;;;1.70;1.60;;;3.90;79.30;;;;;;5052241;28;20445;-76
2023/01/19 10:48:42;;;;;;;10.20;5.18;;;3.90;79.10;;;;;;5050550;28;20861;-76
2023/01/19 10:51:10;;;;;;;2.05;1.77;;;3.70;78.30;;;;;;5050964;28;20210;-76
2023/01/19 10:53:36;;;;;;;2.25;1.52;;;3.50;79.30;;;;;;5051135;28;20264;-76
2023/01/19 10:56:16;;;;;;;10.93;4.65;;;3.30;80.70;;;;;;5050921;28;20234;-76
2023/01/19 10:58:41;;;;;;;8.60;3.90;;;3.50;82.50;;;;;;5050841;28;20304;-76
2023/01/19 11:01:22;;;;;;;25.17;9.77;;;3.50;80.60;;;;;;5049489;28;21033;-76
2023/01/19 11:03:48;;;;;;;99.90;30.70;;;3.70;83.40;;;;;;5050806;28;20178;-76
2023/01/19 11:06:23;;;;;;;5.80;3.43;;;4.10;82.50;;;;;;5050915;28;20210;-76
2023/01/19 11:08:50;;;;;;;5.35;3.90;;;4.40;82.10;;;;;;5050950;28;20420;-76
2023/01/19 11:11:18;;;;;;;3.30;2.95;;;4.80;81.30;;;;;;5050942;28;20202;-76
2023/01/19 11:13:44;;;;;;;5.40;2.30;;;4.70;78.50;;;;;;5049484;28;20202;-76
2023/01/19 11:16:26;;;;;;;2.80;2.10;;;4.80;77.90;;;;;;5050975;28;20425;-76
2023/01/19 11:18:54;;;;;;;7.30;1.90;;;4.80;77.60;;;;;;5050778;28;20477;-76
2023/01/19 11:21:26;;;;;;;3.03;1.90;;;4.80;77.30;;;;;;5049176;28;20201;-76
2023/01/19 11:24:00;;;;;;;5.35;2.10;;;4.60;77.80;;;;;;5049080;28;20265;-76
2023/01/19 11:26:31;;;;;;;2.85;2.10;;;4.40;80.00;;;;;;5050893;28;20264;-81
2023/01/19 11:29:00;;;;;;;4.90;2.70;;;4.30;80.10;;;;;;5049059;28;20238;-76
2023/01/19 11:31:30;;;;;;;2.72;2.22;;;4.20;82.70;;;;;;5051119;28;20815;-76
2023/01/19 11:34:04;;;;;;;2.47;1.90;;;4.00;80.20;;;;;;5048972;28;20272;-76
2023/01/19 11:36:33;;;;;;;4.20;2.20;;;3.80;82.20;;;;;;5050621;28;20181;-76
2023/01/19 11:39:14;;;;;;;2.58;2.00;;;4.00;84.90;;;;;;5032855;28;20531;-76
2023/01/19 11:41:40;;;;;;;2.63;2.20;;;3.90;79.60;;;;;;5050457;28;20706;-76
2023/01/19 11:44:17;;;;;;;2.70;1.90;;;3.70;81.00;;;;;;5050174;28;20922;-76
2023/01/19 11:46:45;;;;;;;9.25;2.05;;;3.70;84.70;;;;;;5050492;28;20410;-77
2023/01/19 11:49:20;;;;;;;5.67;3.73;;;3.80;82.70;;;;;;5050253;28;20860;-76
2023/01/19 11:52:25;;;;;;;2.60;2.00;;;3.60;82.70;;;;;;5048697;28;20449;-76
2023/01/19 11:55:00;;;;;;;2.60;2.28;;;3.60;86.10;;;;;;5050098;28;20219;-76
2023/01/19 11:57:26;;;;;;;3.10;2.43;;;3.40;85.80;;;;;;5050122;28;20202;-76
2023/01/19 11:59:53;;;;;;;4.13;2.47;;;3.30;86.60;;;;;;5048375;28;20441;-76
2023/01/19 12:02:27;;;;;;;3.10;2.53;;;3.10;85.80;;;;;;5050020;28;20224;-76
2023/01/19 12:04:58;;;;;;;3.35;2.33;;;3.10;88.60;;;;;;5049737;28;20174;-76
2023/01/19 12:07:29;;;;;;;4.35;2.60;;;3.10;89.00;;;;;;5049999;28;20202;-76
2023/01/19 12:10:11;;;;;;;3.60;2.75;;;3.10;87.50;;;;;;5049998;28;20183;-76
2023/01/19 12:12:39;;;;;;;4.53;3.00;;;3.20;90.40;;;;;;5048324;28;20565;-76
2023/01/19 12:15:37;;;;;;;6.00;2.90;;;3.00;90.40;;;;;;5049965;28;20236;-76
2023/01/19 12:18:06;;;;;;;7.97;3.60;;;3.00;91.20;;;;;;5048520;28;20210;-76
2023/01/19 12:20:43;;;;;;;4.13;3.40;;;3.00;91.30;;;;;;5049844;28;20300;-76
2023/01/19 12:23:20;;;;;;;3.75;3.00;;;2.90;90.50;;;;;;5049898;28;20177;-76
2023/01/19 12:26:12;;;;;;;5.65;3.50;;;2.80;91.20;;;;;;5049783;28;20653;-76
2023/01/19 12:28:41;;;;;;;7.32;4.13;;;2.70;91.00;;;;;;5049890;28;20197;-75
2023/01/19 12:31:08;;;;;;;3.53;3.13;;;2.60;90.80;;;;;;5049482;28;20208;-75
2023/01/19 12:33:38;;;;;;;2.60;2.40;;;2.40;91.20;;;;;;5048402;28;20190;-76
2023/01/19 12:36:03;;;;;;;4.32;2.90;;;2.10;91.30;;;;;;5051033;28;20672;-75
2023/01/19 12:38:52;;;;;;;4.47;2.77;;;2.10;92.10;;;;;;5052069;28;20205;-75
2023/01/19 12:41:19;;;;;;;7.07;2.75;;;2.00;90.70;;;;;;5051997;28;20434;-75
2023/01/19 12:43:46;;;;;;;3.53;2.78;;;1.90;92.40;;;;;;5052133;28;20180;-75
2023/01/19 12:46:30;;;;;;;4.00;2.30;;;2.00;92.30;;;;;;5057484;28;20568;-76
2023/01/19 12:49:22;;;;;;;5.13;2.72;;;1.90;91.90;;;;;;5052657;28;20214;-75
2023/01/19 12:51:49;;;;;;;3.38;2.80;;;2.00;93.50;;;;;;5052173;28;20665;-76
2023/01/19 12:54:31;;;;;;;5.35;2.97;;;1.70;92.90;;;;;;5052699;28;20184;-76
2023/01/19 12:57:01;;;;;;;2.83;2.47;;;1.70;92.90;;;;;;5052408;28;20173;-75
2023/01/19 12:59:27;;;;;;;3.85;2.60;;;1.80;93.10;;;;;;5050789;28;20269;-75
2023/01/19 13:02:24;;;;;;;3.75;3.17;;;1.90;94.10;;;;;;5051569;28;20235;-76
2023/01/19 13:05:10;;;;;;;5.50;4.90;;;1.80;93.60;;;;;;5050762;28;20177;-75
2023/01/19 13:08:00;;;;;;;5.68;2.97;;;1.80;93.60;;;;;;5049299;28;20192;-75
2023/01/19 13:10:51;;;;;;;5.30;3.33;;;1.50;94.20;;;;;;5049235;28;20225;-76
2023/01/19 13:13:26;;;;;;;4.85;2.88;;;1.80;95.00;;;;;;5049960;28;20193;-76